Time;durP1;ratioP1;P1;durP2;ratioP2;P2;SDS_P1;SDS_P2;PMS_P1;PMS_P2;Temp;Humidity;BMP_temperature;BMP_pressure;BME280_temperature;BME280_humidity;BME280_pressure;Samples;Min_cycle;Max_cycle;Signal;HPM_P1;HPM_P2
2021/03/22 00:02:23;;;;;;;2.10;1.20;;;16.10;59.20;;;;;;5032188;28;20036;-37
2021/03/22 00:04:49;;;;;;;1.67;1.00;;;16.10;59.20;;;;;;5042605;28;20128;-37
2021/03/22 00:07:15;;;;;;;2.08;1.08;;;16.10;59.20;;;;;;5024484;28;20056;-37
2021/03/22 00:09:42;;;;;;;2.15;1.00;;;16.10;59.20;;;;;;5042039;28;20068;-37
2021/03/22 00:12:08;;;;;;;2.08;1.00;;;16.10;59.20;;;;;;5042094;28;20053;-37
2021/03/22 00:14:35;;;;;;;1.65;1.00;;;16.10;59.10;;;;;;5042459;28;20697;-37
2021/03/22 00:17:01;;;;;;;2.80;1.20;;;16.10;59.20;;;;;;5024672;28;20560;-37
2021/03/22 00:19:29;;;;;;;1.75;0.95;;;16.10;59.20;;;;;;5042186;28;20052;-37
2021/03/22 00:21:55;;;;;;;2.42;1.02;;;16.10;59.20;;;;;;5042276;28;20061;-37
2021/03/22 00:24:22;;;;;;;2.95;1.10;;;16.10;59.20;;;;;;5042259;28;20026;-37
2021/03/22 00:26:48;;;;;;;3.13;1.17;;;16.10;59.20;;;;;;5055142;28;20016;-37
2021/03/22 00:29:14;;;;;;;1.33;0.90;;;16.00;59.20;;;;;;5082244;28;20036;-37
2021/03/22 00:31:40;;;;;;;1.58;0.80;;;16.10;59.30;;;;;;5073634;28;20032;-37
2021/03/22 00:34:06;;;;;;;3.13;0.90;;;16.10;59.40;;;;;;5061731;28;20025;-37
2021/03/22 00:36:32;;;;;;;1.70;1.05;;;16.10;59.60;;;;;;5054402;28;20029;-37
2021/03/22 00:38:58;;;;;;;1.02;0.80;;;16.10;60.30;;;;;;5062069;28;20036;-36
2021/03/22 00:41:25;;;;;;;1.98;1.00;;;16.00;59.50;;;;;;5043615;28;20025;-37
2021/03/22 00:43:51;;;;;;;1.90;1.10;;;16.00;59.30;;;;;;5062262;28;20032;-37
2021/03/22 00:46:17;;;;;;;2.97;1.40;;;16.00;59.20;;;;;;5062080;28;20029;-37
2021/03/22 00:48:43;;;;;;;2.88;1.10;;;16.00;59.20;;;;;;5061625;28;20037;-37
2021/03/22 00:51:10;;;;;;;2.13;1.20;;;16.00;59.20;;;;;;5061863;28;20119;-37
2021/03/22 00:53:36;;;;;;;2.15;1.02;;;16.00;59.20;;;;;;5061762;28;20032;-37
2021/03/22 00:56:02;;;;;;;1.48;0.88;;;16.00;59.10;;;;;;5043905;28;20052;-37
2021/03/22 00:58:29;;;;;;;1.95;1.05;;;16.00;59.20;;;;;;5047461;28;20025;-37
2021/03/22 01:00:56;;;;;;;2.37;1.30;;;16.00;59.10;;;;;;5064895;28;20041;-37
2021/03/22 01:03:30;;;;;;;2.65;1.10;;;16.00;59.10;;;;;;5045450;28;20072;-38
2021/03/22 01:05:56;;;;;;;2.25;1.00;;;16.00;59.20;;;;;;5045525;28;20125;-37
2021/03/22 01:08:24;;;;;;;1.50;0.90;;;16.00;59.10;;;;;;5045564;28;20037;-38
2021/03/22 01:10:57;;;;;;;;;;;16.00;59.00;;;;;;5045413;28;20089;-37
2021/03/22 01:13:28;;;;;;;1.83;0.80;;;15.90;59.10;;;;;;5045362;28;19925;-37
2021/03/22 01:15:54;;;;;;;1.83;1.13;;;15.90;59.00;;;;;;5045399;28;20052;-37
2021/03/22 01:18:22;;;;;;;2.67;0.98;;;15.90;59.10;;;;;;5045312;28;20037;-37
2021/03/22 01:20:51;;;;;;;2.90;1.20;;;15.90;59.20;;;;;;5044965;28;20033;-37
2021/03/22 01:23:17;;;;;;;1.77;1.25;;;15.90;59.20;;;;;;5045280;28;20025;-37
2021/03/22 01:25:43;;;;;;;4.60;1.02;;;15.90;59.10;;;;;;5045574;28;20036;-37
2021/03/22 01:28:13;;;;;;;1.92;1.10;;;15.90;59.40;;;;;;5061601;28;20047;-37
2021/03/22 01:30:41;;;;;;;3.30;1.15;;;15.90;59.60;;;;;;5076509;28;20041;-37
2021/03/22 01:33:12;;;;;;;1.70;0.85;;;15.90;59.50;;;;;;5048209;28;20029;-37
2021/03/22 01:35:38;;;;;;;1.98;1.10;;;15.90;59.60;;;;;;5041896;28;20036;-37
2021/03/22 01:38:05;;;;;;;2.65;1.10;;;15.90;59.60;;;;;;5051496;28;20034;-37
2021/03/22 01:41:01;;;;;;;2.15;0.98;;;15.90;59.80;;;;;;5044424;28;20021;-37
2021/03/22 01:43:42;;;;;;;2.42;1.33;;;15.90;59.80;;;;;;5044699;28;20026;-37
2021/03/22 01:46:08;;;;;;;2.38;0.93;;;15.90;59.60;;;;;;5027498;28;20029;-37
2021/03/22 01:48:34;;;;;;;3.33;1.13;;;15.80;59.90;;;;;;5063659;28;20105;-37
2021/03/22 01:51:01;;;;;;;3.17;1.27;;;15.80;59.80;;;;;;5029975;28;20032;-37
2021/03/22 01:53:27;;;;;;;1.95;1.10;;;15.80;59.80;;;;;;5046595;28;20110;-37
2021/03/22 01:56:14;;;;;;;1.33;1.00;;;15.80;59.80;;;;;;5064107;28;20029;-37
2021/03/22 01:58:40;;;;;;;2.03;1.13;;;15.70;59.70;;;;;;5065271;28;20105;-37
2021/03/22 02:01:06;;;;;;;1.58;1.10;;;15.70;59.50;;;;;;5082136;28;20481;-37
2021/03/22 02:03:33;;;;;;;2.40;1.20;;;15.70;59.60;;;;;;5064481;28;20105;-37
2021/03/22 02:05:59;;;;;;;2.17;1.10;;;15.70;59.50;;;;;;5064383;28;20025;-37
2021/03/22 02:08:28;;;;;;;2.70;1.13;;;15.70;59.50;;;;;;5045052;28;20072;-37
2021/03/22 02:10:54;;;;;;;1.85;0.88;;;15.70;59.40;;;;;;5029287;28;20633;-39
2021/03/22 02:13:28;;;;;;;1.45;1.00;;;15.70;59.30;;;;;;5046209;28;20068;-38
2021/03/22 02:16:08;;;;;;;3.20;1.10;;;15.70;59.40;;;;;;5063929;28;20041;-38
2021/03/22 02:18:59;;;;;;;1.77;1.10;;;15.60;59.00;;;;;;5046232;28;20063;-38
2021/03/22 02:22:04;;;;;;;1.85;0.90;;;15.60;58.50;;;;;;5046042;28;20058;-39
2021/03/22 02:24:55;;;;;;;2.63;1.20;;;15.60;58.30;;;;;;5064037;28;20100;-39
2021/03/22 02:27:36;;;;;;;2.10;1.08;;;15.60;58.30;;;;;;5055436;28;20035;-38
2021/03/22 02:30:12;;;;;;;2.47;1.20;;;15.60;58.30;;;;;;5083924;28;20116;-38
2021/03/22 02:33:06;;;;;;;1.27;0.70;;;15.60;58.30;;;;;;5050944;28;20033;-38
2021/03/22 02:35:32;;;;;;;1.73;1.02;;;15.60;58.30;;;;;;5027140;28;20029;-39
2021/03/22 02:38:16;;;;;;;2.03;1.30;;;15.60;58.30;;;;;;5037527;28;20064;-43
2021/03/22 02:40:58;;;;;;;2.28;1.13;;;15.60;58.30;;;;;;5025702;28;20025;-38
2021/03/22 02:43:25;;;;;;;1.65;1.23;;;15.50;58.40;;;;;;5043574;28;20045;-39
2021/03/22 02:45:53;;;;;;;2.10;1.23;;;15.50;58.40;;;;;;5056670;28;20466;-38
2021/03/22 02:48:24;;;;;;;2.15;0.90;;;15.50;58.40;;;;;;5048864;28;20041;-38
2021/03/22 02:51:20;;;;;;;1.33;0.90;;;15.50;58.30;;;;;;5063514;28;20028;-38
2021/03/22 02:54:19;;;;;;;5.78;1.60;;;15.50;58.40;;;;;;5045314;28;20140;-38
2021/03/22 02:56:57;;;;;;;2.72;0.95;;;15.50;58.40;;;;;;5069943;28;20032;-42
2021/03/22 02:59:33;;;;;;;1.60;0.80;;;15.50;58.40;;;;;;5050355;28;20040;-38
2021/03/22 03:02:03;;;;;;;1.98;1.00;;;15.50;58.50;;;;;;5040201;28;20029;-38
2021/03/22 03:04:30;;;;;;;1.55;0.95;;;15.50;58.60;;;;;;5063339;28;20031;-40
2021/03/22 03:07:00;;;;;;;1.95;1.17;;;15.40;58.50;;;;;;5029013;28;20108;-38
2021/03/22 03:09:32;;;;;;;2.50;1.05;;;15.40;58.50;;;;;;5045438;28;20041;-38
2021/03/22 03:12:22;;;;;;;1.52;0.90;;;15.40;58.50;;;;;;5044628;28;20037;-39
2021/03/22 03:14:53;;;;;;;2.58;1.00;;;15.40;58.50;;;;;;5063147;28;20044;-38
2021/03/22 03:17:19;;;;;;;1.85;1.00;;;15.40;58.50;;;;;;5063135;28;20019;-38
2021/03/22 03:19:45;;;;;;;1.27;0.90;;;15.40;58.50;;;;;;5044754;28;20029;-39
2021/03/22 03:22:11;;;;;;;1.48;0.98;;;15.40;58.50;;;;;;5062992;28;20124;-39
2021/03/22 03:24:38;;;;;;;1.45;1.00;;;15.40;58.50;;;;;;5062816;28;20028;-38
2021/03/22 03:27:05;;;;;;;1.20;0.90;;;15.30;58.50;;;;;;5062312;28;20072;-38
2021/03/22 03:29:31;;;;;;;2.07;1.10;;;15.30;58.50;;;;;;5082839;28;20041;-38
2021/03/22 03:31:57;;;;;;;1.75;1.00;;;15.30;58.70;;;;;;5073859;28;20085;-38
2021/03/22 03:34:23;;;;;;;2.30;0.98;;;15.30;58.70;;;;;;5061260;28;20025;-38
2021/03/22 03:36:49;;;;;;;2.15;1.00;;;15.20;58.60;;;;;;5054221;28;20460;-38
2021/03/22 03:39:15;;;;;;;2.80;1.50;;;15.20;58.60;;;;;;5044856;28;20053;-38
2021/03/22 03:41:42;;;;;;;2.00;1.15;;;15.20;58.60;;;;;;5062521;28;20036;-38
2021/03/22 03:44:10;;;;;;;2.10;1.20;;;15.20;58.60;;;;;;5062325;28;20025;-38
2021/03/22 03:46:36;;;;;;;1.63;1.00;;;15.20;58.60;;;;;;5062625;28;20029;-38
2021/03/22 03:49:03;;;;;;;2.00;1.13;;;15.20;58.70;;;;;;5062750;28;20043;-38
2021/03/22 03:51:29;;;;;;;2.08;1.00;;;15.10;59.20;;;;;;5062805;28;20102;-38
2021/03/22 03:53:55;;;;;;;1.70;1.00;;;15.10;58.70;;;;;;5062254;28;20067;-38
2021/03/22 03:56:22;;;;;;;2.50;1.00;;;15.10;58.60;;;;;;5062021;28;20504;-38
2021/03/22 03:58:48;;;;;;;1.73;1.17;;;15.10;58.70;;;;;;5062488;28;20020;-38
2021/03/22 04:01:14;;;;;;;1.70;1.15;;;15.10;58.70;;;;;;5062403;28;20040;-38
2021/03/22 04:03:40;;;;;;;1.17;0.80;;;15.10;58.80;;;;;;5062171;28;20017;-39
2021/03/22 04:06:11;;;;;;;1.58;1.25;;;15.10;58.70;;;;;;5062459;28;20033;-38
2021/03/22 04:08:42;;;;;;;2.67;1.08;;;15.10;58.70;;;;;;5062355;28;20037;-38
2021/03/22 04:11:10;;;;;;;1.52;1.20;;;15.00;58.70;;;;;;5062114;28;20036;-39
2021/03/22 04:13:36;;;;;;;1.83;1.00;;;15.00;58.70;;;;;;5044358;28;20048;-39
2021/03/22 04:16:03;;;;;;;2.03;1.20;;;15.00;58.70;;;;;;5062550;28;20025;-39
2021/03/22 04:18:29;;;;;;;2.83;1.27;;;15.00;58.80;;;;;;5062437;28;20033;-39
2021/03/22 04:20:55;;;;;;;2.10;1.08;;;15.00;58.70;;;;;;5062240;28;20021;-38
2021/03/22 04:23:21;;;;;;;2.88;1.13;;;15.00;58.70;;;;;;5061926;28;20120;-38
2021/03/22 04:25:47;;;;;;;1.92;0.93;;;15.00;58.70;;;;;;5062151;28;20056;-38
2021/03/22 04:28:13;;;;;;;1.77;1.10;;;14.90;58.80;;;;;;5077622;28;20845;-38
2021/03/22 04:30:40;;;;;;;3.13;1.40;;;14.90;58.90;;;;;;5081962;28;20035;-39
2021/03/22 04:33:06;;;;;;;2.47;1.23;;;14.90;58.90;;;;;;5066474;28;20048;-38
2021/03/22 04:35:32;;;;;;;3.60;1.38;;;14.90;58.80;;;;;;5062838;28;20056;-39
2021/03/22 04:37:58;;;;;;;2.17;1.27;;;14.90;58.80;;;;;;5057231;28;20079;-39
2021/03/22 04:40:27;;;;;;;2.55;1.20;;;14.90;58.90;;;;;;5066470;28;20025;-39
2021/03/22 04:42:53;;;;;;;2.58;1.20;;;14.80;58.90;;;;;;5047904;28;20056;-39
2021/03/22 04:45:26;;;;;;;3.15;1.42;;;14.80;59.10;;;;;;5065586;28;20182;-39
2021/03/22 04:47:52;;;;;;;1.52;1.00;;;14.80;58.90;;;;;;5065778;28;20028;-38
2021/03/22 04:50:19;;;;;;;1.38;1.02;;;14.80;58.90;;;;;;5065916;28;20025;-38
2021/03/22 04:52:45;;;;;;;1.25;1.00;;;14.80;59.30;;;;;;5065831;28;20459;-39
2021/03/22 04:55:12;;;;;;;2.90;1.20;;;14.80;59.10;;;;;;5065510;28;20029;-38
2021/03/22 04:57:38;;;;;;;2.27;1.27;;;14.80;59.30;;;;;;5068712;28;20085;-39
2021/03/22 05:00:17;;;;;;;2.55;1.10;;;14.70;59.10;;;;;;5085515;28;20028;-38
2021/03/22 05:02:43;;;;;;;2.08;1.10;;;14.70;59.00;;;;;;5070145;28;20027;-38
2021/03/22 05:05:10;;;;;;;2.40;1.10;;;14.70;59.30;;;;;;5065300;28;20512;-39
2021/03/22 05:07:36;;;;;;;3.15;1.10;;;14.70;59.20;;;;;;5065472;28;20100;-39
2021/03/22 05:10:04;;;;;;;1.65;1.25;;;14.70;59.30;;;;;;5065328;28;20025;-39
2021/03/22 05:12:30;;;;;;;2.20;1.20;;;14.70;59.10;;;;;;5065242;28;20049;-39
2021/03/22 05:14:56;;;;;;;2.20;1.20;;;14.70;59.00;;;;;;5065083;28;20025;-38
2021/03/22 05:17:23;;;;;;;1.73;1.10;;;14.70;59.00;;;;;;5065558;28;20804;-38
2021/03/22 05:19:49;;;;;;;2.25;1.20;;;14.70;59.10;;;;;;5065250;28;20021;-38
2021/03/22 05:22:15;;;;;;;1.83;1.00;;;14.70;59.20;;;;;;5065174;28;20021;-38
2021/03/22 05:24:41;;;;;;;2.17;1.20;;;14.60;59.70;;;;;;5062545;28;20033;-38
2021/03/22 05:27:08;;;;;;;1.60;1.30;;;14.60;59.20;;;;;;5063388;28;20022;-38
2021/03/22 05:29:34;;;;;;;1.90;1.30;;;14.60;59.10;;;;;;5065008;28;20124;-38
2021/03/22 05:32:00;;;;;;;2.75;1.27;;;14.60;59.20;;;;;;5065049;28;20029;-39
2021/03/22 05:34:27;;;;;;;1.90;1.45;;;14.60;59.20;;;;;;5046657;28;20029;-38
2021/03/22 05:36:53;;;;;;;1.90;1.20;;;14.60;59.10;;;;;;5062301;28;20029;-38
2021/03/22 05:39:19;;;;;;;2.70;1.30;;;14.60;59.10;;;;;;5055487;28;20531;-38
2021/03/22 05:42:17;;;;;;;1.67;1.27;;;14.50;59.30;;;;;;5064263;28;20033;-39
2021/03/22 05:44:52;;;;;;;1.48;1.10;;;14.50;59.30;;;;;;4963377;29;20047;-38
2021/03/22 05:47:23;;;;;;;2.13;1.27;;;14.50;59.30;;;;;;4948263;29;20027;-39
2021/03/22 05:50:04;;;;;;;2.55;1.20;;;14.50;59.30;;;;;;4948335;29;20054;-39
2021/03/22 05:52:49;;;;;;;1.77;1.05;;;14.50;59.50;;;;;;4949552;29;20039;-39
2021/03/22 05:55:35;;;;;;;1.30;1.00;;;14.40;59.40;;;;;;4963475;29;20043;-38
2021/03/22 05:58:16;;;;;;;3.65;1.40;;;14.40;59.40;;;;;;4956868;29;20035;-38
2021/03/22 06:00:46;;;;;;;1.58;1.15;;;14.50;59.40;;;;;;4963202;28;20023;-39
2021/03/22 06:03:24;;;;;;;1.67;1.15;;;14.40;59.60;;;;;;4963407;29;20030;-38
2021/03/22 06:05:59;;;;;;;1.70;1.20;;;14.40;59.50;;;;;;4963509;29;20538;-38
2021/03/22 06:08:32;;;;;;;1.65;1.13;;;14.40;59.50;;;;;;4963450;29;20051;-38
2021/03/22 06:10:59;;;;;;;2.45;1.20;;;14.40;59.40;;;;;;4947747;29;20662;-39
2021/03/22 06:13:31;;;;;;;2.22;1.20;;;14.40;59.50;;;;;;4947318;29;20474;-38
2021/03/22 06:16:08;;;;;;;1.92;1.10;;;14.40;59.50;;;;;;4931482;29;20039;-38
2021/03/22 06:18:36;;;;;;;1.83;1.33;;;14.40;59.50;;;;;;4947698;29;20042;-38
2021/03/22 06:21:13;;;;;;;3.03;1.40;;;14.30;59.50;;;;;;5006772;28;20029;-38
2021/03/22 06:23:44;;;;;;;2.03;1.25;;;14.30;59.60;;;;;;5063985;28;20112;-38
2021/03/22 06:26:28;;;;;;;1.60;1.20;;;14.30;59.50;;;;;;5053549;28;20078;-38
2021/03/22 06:29:00;;;;;;;3.13;1.17;;;14.30;59.50;;;;;;5044073;28;20502;-38
2021/03/22 06:31:26;;;;;;;1.95;1.30;;;14.30;59.60;;;;;;5048943;28;20036;-39
2021/03/22 06:34:03;;;;;;;1.70;1.38;;;14.30;59.60;;;;;;5046005;28;20025;-39
2021/03/22 06:36:30;;;;;;;2.10;1.27;;;14.30;59.60;;;;;;5019900;28;20025;-39
2021/03/22 06:38:59;;;;;;;1.85;1.20;;;14.30;59.70;;;;;;5042369;28;20052;-38
2021/03/22 06:41:41;;;;;;;1.90;1.30;;;14.30;59.50;;;;;;5063420;28;20025;-38
2021/03/22 06:44:10;;;;;;;2.92;1.10;;;14.30;59.70;;;;;;5063896;28;20036;-38
2021/03/22 06:47:00;;;;;;;2.55;1.52;;;14.20;59.60;;;;;;5063278;28;20071;-38
2021/03/22 06:49:31;;;;;;;2.58;1.30;;;14.20;59.70;;;;;;5063446;28;20095;-38
2021/03/22 06:51:59;;;;;;;2.15;1.23;;;14.20;59.70;;;;;;5063392;28;20021;-38
2021/03/22 06:54:40;;;;;;;2.28;1.15;;;14.20;59.80;;;;;;5045301;28;20043;-38
2021/03/22 06:57:09;;;;;;;2.50;1.40;;;14.20;59.60;;;;;;5062876;28;20020;-37
2021/03/22 06:59:36;;;;;;;2.67;1.48;;;14.20;59.60;;;;;;5083352;28;20036;-39
2021/03/22 07:02:20;;;;;;;2.70;1.30;;;14.20;59.70;;;;;;5079884;28;20028;-38
2021/03/22 07:04:46;;;;;;;1.77;1.20;;;14.20;59.60;;;;;;5083149;28;20043;-38
2021/03/22 07:07:23;;;;;;;1.88;1.23;;;14.20;59.60;;;;;;5083002;28;20481;-38
2021/03/22 07:09:57;;;;;;;2.55;1.50;;;14.20;59.60;;;;;;5083282;28;20101;-39
2021/03/22 07:12:38;;;;;;;1.85;1.08;;;14.10;59.70;;;;;;5083026;28;20052;-39
2021/03/22 07:15:20;;;;;;;3.13;1.30;;;14.20;59.70;;;;;;5082935;28;20062;-38
2021/03/22 07:18:00;;;;;;;2.65;1.30;;;14.10;59.70;;;;;;5083012;28;20032;-38
2021/03/22 07:20:27;;;;;;;2.33;1.40;;;14.10;59.60;;;;;;5082867;28;20017;-38
2021/03/22 07:23:08;;;;;;;1.92;1.20;;;14.10;59.70;;;;;;5082985;28;20044;-38
2021/03/22 07:25:41;;;;;;;2.38;1.40;;;14.10;59.70;;;;;;5048580;28;20024;-38
2021/03/22 07:28:39;;;;;;;2.75;1.38;;;14.10;59.80;;;;;;5050784;28;20060;-38
2021/03/22 07:31:12;;;;;;;3.47;1.27;;;14.10;59.80;;;;;;4961741;29;20114;-38
2021/03/22 07:33:49;;;;;;;1.83;1.50;;;14.10;59.90;;;;;;4962079;29;20042;-38
2021/03/22 07:36:41;;;;;;;2.08;1.27;;;14.10;59.80;;;;;;4943039;29;20044;-45
2021/03/22 07:39:12;;;;;;;1.90;1.30;;;14.00;59.80;;;;;;4944164;29;20059;-38
2021/03/22 07:42:02;;;;;;;2.35;1.30;;;14.00;59.80;;;;;;4945530;28;20043;-38
2021/03/22 07:44:50;;;;;;;3.78;1.58;;;14.00;59.80;;;;;;4961603;29;20635;-38
2021/03/22 07:47:32;;;;;;;1.63;1.02;;;14.00;60.50;;;;;;4946444;29;20051;-38
2021/03/22 07:50:03;;;;;;;1.75;1.35;;;14.00;59.90;;;;;;4961645;29;20027;-38
2021/03/22 07:52:45;;;;;;;1.63;1.20;;;14.00;59.90;;;;;;4945730;29;20490;-38
2021/03/22 07:55:17;;;;;;;2.60;1.42;;;14.00;59.90;;;;;;4947567;29;20039;-38
2021/03/22 07:57:55;;;;;;;2.25;1.40;;;13.90;59.80;;;;;;4956035;28;20062;-38
2021/03/22 08:00:33;;;;;;;;;;;14.00;59.90;;;;;;4981458;28;20495;-38
2021/03/22 08:03:29;;;;;;;1.38;1.00;;;13.90;59.80;;;;;;4963822;28;19942;-38
2021/03/22 08:06:22;;;;;;;2.40;1.20;;;13.90;59.90;;;;;;4945691;29;20036;-38
2021/03/22 08:09:10;;;;;;;1.73;1.15;;;13.90;60.00;;;;;;5066387;28;20029;-38
2021/03/22 08:11:54;;;;;;;1.73;1.38;;;13.90;59.90;;;;;;5065941;28;20083;-38
2021/03/22 08:14:33;;;;;;;2.05;1.25;;;13.90;59.90;;;;;;5066651;28;20128;-38
2021/03/22 08:17:01;;;;;;;1.50;1.10;;;13.90;59.90;;;;;;5048278;28;20088;-38
2021/03/22 08:19:27;;;;;;;1.45;1.25;;;13.90;60.00;;;;;;5073028;28;20021;-38
2021/03/22 08:22:11;;;;;;;1.95;1.35;;;13.90;60.00;;;;;;5086389;28;20048;-38
2021/03/22 08:24:55;;;;;;;1.77;1.30;;;13.90;60.00;;;;;;5052924;28;20094;-38
2021/03/22 08:27:27;;;;;;;1.67;1.17;;;13.90;60.00;;;;;;5074153;28;20482;-38
2021/03/22 08:30:13;;;;;;;3.35;1.75;;;13.80;59.90;;;;;;5066369;28;20033;-38
2021/03/22 08:32:45;;;;;;;2.97;1.58;;;13.80;59.90;;;;;;5051017;28;20029;-38
2021/03/22 08:35:16;;;;;;;1.65;1.25;;;13.80;60.00;;;;;;5048110;28;20028;-38
2021/03/22 08:37:59;;;;;;;2.85;1.45;;;13.80;60.00;;;;;;5037895;28;20030;-38
2021/03/22 08:40:46;;;;;;;1.70;1.10;;;13.80;60.10;;;;;;5045973;28;20037;-38
2021/03/22 08:43:45;;;;;;;2.13;1.40;;;13.80;60.10;;;;;;5027641;28;20030;-38
2021/03/22 08:46:33;;;;;;;3.75;1.67;;;13.80;60.00;;;;;;5028196;28;20040;-38
2021/03/22 08:49:00;;;;;;;2.03;1.33;;;13.70;59.90;;;;;;5045848;28;20101;-38
2021/03/22 08:51:31;;;;;;;2.25;1.20;;;13.80;60.00;;;;;;5028127;28;20029;-38
2021/03/22 08:54:00;;;;;;;1.98;1.40;;;13.80;60.00;;;;;;5028279;28;20066;-38
2021/03/22 08:56:42;;;;;;;1.48;1.20;;;13.80;60.00;;;;;;5046118;28;20026;-38
2021/03/22 08:59:09;;;;;;;1.83;1.13;;;13.70;60.00;;;;;;5066189;28;20051;-38
2021/03/22 09:01:40;;;;;;;3.38;1.33;;;13.70;60.00;;;;;;5045026;28;20032;-38
2021/03/22 09:04:29;;;;;;;2.22;1.30;;;13.70;59.90;;;;;;5047975;28;20033;-38
2021/03/22 09:07:02;;;;;;;2.17;1.30;;;13.70;59.90;;;;;;5065506;28;20033;-39
2021/03/22 09:09:30;;;;;;;1.73;1.10;;;13.70;59.90;;;;;;5065373;28;20071;-38
2021/03/22 09:11:57;;;;;;;1.48;1.20;;;13.70;59.90;;;;;;5047040;28;20059;-37
2021/03/22 09:14:46;;;;;;;2.85;1.30;;;13.70;59.90;;;;;;5030873;28;20032;-38
2021/03/22 09:17:31;;;;;;;;;;;13.70;60.00;;;;;;5032305;28;20025;-38
2021/03/22 09:20:21;;;;;;;2.38;1.30;;;13.70;59.90;;;;;;5045236;28;20416;-38
2021/03/22 09:22:56;;;;;;;2.67;1.08;;;13.60;59.90;;;;;;5044871;28;20029;-38
2021/03/22 09:25:55;;;;;;;1.75;1.20;;;13.60;60.00;;;;;;5045205;28;20029;-38
2021/03/22 09:28:24;;;;;;;1.83;1.17;;;13.60;60.10;;;;;;5061291;28;20045;-38
2021/03/22 09:31:00;;;;;;;2.22;1.02;;;13.60;60.10;;;;;;5065070;28;20833;-38
2021/03/22 09:34:04;;;;;;;1.83;1.30;;;13.60;60.20;;;;;;5044837;28;20030;-38
2021/03/22 09:36:36;;;;;;;1.63;1.10;;;13.60;60.20;;;;;;5044854;28;20057;-38
2021/03/22 09:39:14;;;;;;;3.83;1.30;;;13.60;60.20;;;;;;5044990;28;20034;-38
2021/03/22 09:41:52;;;;;;;2.80;1.30;;;13.60;60.20;;;;;;5028537;28;20051;-38
2021/03/22 09:44:19;;;;;;;2.53;1.17;;;13.60;60.20;;;;;;5053362;28;20049;-38
2021/03/22 09:46:47;;;;;;;1.70;1.30;;;13.50;60.30;;;;;;5044606;28;20045;-38
2021/03/22 09:49:21;;;;;;;1.33;1.00;;;13.50;60.20;;;;;;5010701;28;20053;-38
2021/03/22 09:51:49;;;;;;;2.03;1.17;;;13.60;60.20;;;;;;5026969;28;20048;-38
2021/03/22 09:54:33;;;;;;;1.40;1.02;;;13.50;60.20;;;;;;5026434;28;20029;-38
2021/03/22 09:57:34;;;;;;;2.35;1.10;;;13.50;60.10;;;;;;5036503;28;20027;-38
2021/03/22 10:00:34;;;;;;;2.13;1.23;;;13.50;60.10;;;;;;4982751;28;20051;-38
2021/03/22 10:03:19;;;;;;;1.52;1.10;;;13.50;60.20;;;;;;4965857;28;20039;-38
2021/03/22 10:05:47;;;;;;;1.95;1.30;;;13.50;60.30;;;;;;4947359;29;20031;-38
2021/03/22 10:08:14;;;;;;;2.92;1.20;;;13.50;60.30;;;;;;4963452;29;20063;-38
2021/03/22 10:10:56;;;;;;;1.33;1.00;;;13.50;60.30;;;;;;4963253;29;20035;-38
2021/03/22 10:13:29;;;;;;;4.03;1.10;;;13.50;60.10;;;;;;4948191;29;20139;-38
2021/03/22 10:16:01;;;;;;;2.30;1.20;;;13.50;60.10;;;;;;4944078;29;20035;-38
2021/03/22 10:18:55;;;;;;;1.95;1.17;;;13.50;60.30;;;;;;4944181;29;20031;-38
2021/03/22 10:21:31;;;;;;;2.33;1.05;;;13.50;60.20;;;;;;4963115;29;20023;-38
2021/03/22 10:24:11;;;;;;;1.70;1.05;;;13.50;60.20;;;;;;4948146;29;20114;-38
2021/03/22 10:26:39;;;;;;;2.45;1.38;;;13.40;60.20;;;;;;4960651;29;20027;-38
2021/03/22 10:29:24;;;;;;;1.92;1.25;;;13.40;60.30;;;;;;4927547;29;20641;-39
2021/03/22 10:32:06;;;;;;;2.20;1.10;;;13.40;60.30;;;;;;4928697;29;20035;-38
2021/03/22 10:34:49;;;;;;;1.60;1.10;;;13.40;60.30;;;;;;4943562;29;20043;-38
2021/03/22 10:37:18;;;;;;;3.38;1.27;;;13.40;60.30;;;;;;4991573;28;20042;-38
2021/03/22 10:39:53;;;;;;;2.63;0.90;;;13.40;60.40;;;;;;5018889;28;20025;-38
2021/03/22 10:42:34;;;;;;;0.93;0.85;;;13.40;60.40;;;;;;5027063;28;20021;-38
2021/03/22 10:45:00;;;;;;;1.55;1.15;;;13.40;60.30;;;;;;5043061;28;20572;-38
2021/03/22 10:47:29;;;;;;;1.42;1.17;;;13.30;60.40;;;;;;5025972;28;20493;-38
2021/03/22 10:50:18;;;;;;;2.03;1.23;;;13.30;60.40;;;;;;5043504;28;20109;-38
2021/03/22 10:52:44;;;;;;;1.50;1.20;;;13.40;60.30;;;;;;5043560;28;20087;-38
2021/03/22 10:55:29;;;;;;;2.65;1.30;;;13.40;60.40;;;;;;5060951;28;20112;-38
2021/03/22 10:57:56;;;;;;;1.15;1.00;;;13.40;60.30;;;;;;5029667;28;20033;-38
2021/03/22 11:00:40;;;;;;;1.30;1.07;;;13.40;60.30;;;;;;5045135;28;20049;-38
2021/03/22 11:03:07;;;;;;;1.42;1.13;;;13.40;60.30;;;;;;5044943;28;20255;-38
2021/03/22 11:05:54;;;;;;;1.60;1.17;;;13.30;60.20;;;;;;5025374;28;20069;-38
2021/03/22 11:08:32;;;;;;;2.08;1.13;;;13.30;60.20;;;;;;5025658;28;20055;-38
2021/03/22 11:11:12;;;;;;;2.40;1.10;;;13.40;60.30;;;;;;5025224;28;20102;-38
2021/03/22 11:13:42;;;;;;;1.50;1.02;;;13.30;60.20;;;;;;5060346;28;20106;-38
2021/03/22 11:16:08;;;;;;;1.98;1.10;;;13.30;60.30;;;;;;5028723;28;20093;-38
2021/03/22 11:18:34;;;;;;;1.05;0.80;;;13.30;60.50;;;;;;5045097;28;20129;-38
2021/03/22 11:21:01;;;;;;;1.58;1.20;;;13.30;60.30;;;;;;5045146;28;20087;-38
2021/03/22 11:23:41;;;;;;;1.73;1.20;;;13.30;60.40;;;;;;5044953;28;20037;-38
2021/03/22 11:26:28;;;;;;;2.13;1.15;;;13.30;60.40;;;;;;5044968;28;20035;-38
2021/03/22 11:29:19;;;;;;;2.28;1.17;;;13.20;60.30;;;;;;5028265;28;20045;-38
2021/03/22 11:31:47;;;;;;;2.83;1.17;;;13.30;60.40;;;;;;5055541;28;20128;-38
2021/03/22 11:34:26;;;;;;;1.80;1.00;;;13.30;60.50;;;;;;5042898;28;20029;-38
2021/03/22 11:37:22;;;;;;;1.45;1.30;;;13.30;60.40;;;;;;5039593;28;20021;-37
2021/03/22 11:40:12;;;;;;;1.40;1.10;;;13.20;60.30;;;;;;5041831;28;20100;-38
2021/03/22 11:42:55;;;;;;;1.33;1.08;;;13.20;60.40;;;;;;5036006;28;20029;-38
2021/03/22 11:45:33;;;;;;;2.53;1.00;;;13.20;60.50;;;;;;5042552;28;20076;-38
2021/03/22 11:47:59;;;;;;;1.58;1.10;;;13.20;60.40;;;;;;5042561;28;20049;-38
2021/03/22 11:50:44;;;;;;;1.95;1.13;;;13.20;60.60;;;;;;5024983;28;20099;-38
2021/03/22 11:53:19;;;;;;;1.58;1.13;;;13.20;60.50;;;;;;5024632;28;20036;-38
2021/03/22 11:55:49;;;;;;;1.98;1.20;;;13.20;60.60;;;;;;5042099;28;20044;-38
2021/03/22 11:58:37;;;;;;;2.80;1.20;;;13.20;60.50;;;;;;5073713;28;20029;-38
2021/03/22 12:01:18;;;;;;;1.98;1.08;;;13.20;60.40;;;;;;5063297;28;20456;-38
2021/03/22 12:03:44;;;;;;;2.00;1.13;;;13.20;60.40;;;;;;5044542;28;20025;-38
2021/03/22 12:06:19;;;;;;;1.30;0.90;;;13.20;60.50;;;;;;5062165;28;20047;-38
2021/03/22 12:08:56;;;;;;;1.50;1.20;;;13.20;60.50;;;;;;5044670;28;20532;-38
2021/03/22 12:11:30;;;;;;;1.40;1.00;;;13.20;60.60;;;;;;5062088;28;20036;-38
2021/03/22 12:14:00;;;;;;;1.65;1.00;;;13.20;60.50;;;;;;5042272;28;20052;-38
2021/03/22 12:16:36;;;;;;;1.50;0.85;;;13.20;60.50;;;;;;5041944;28;20026;-38
2021/03/22 12:19:14;;;;;;;1.73;1.20;;;13.20;60.50;;;;;;5024641;28;20611;-38
2021/03/22 12:21:41;;;;;;;1.75;1.08;;;13.10;60.50;;;;;;5042003;28;20124;-38
2021/03/22 12:24:10;;;;;;;1.20;0.90;;;13.10;60.50;;;;;;5042266;28;20036;-38
2021/03/22 12:26:36;;;;;;;0.88;0.88;;;13.10;60.50;;;;;;5053667;28;20026;-38
2021/03/22 12:29:04;;;;;;;1.38;1.05;;;13.10;60.50;;;;;;5024289;28;20129;-38
2021/03/22 12:31:50;;;;;;;1.65;0.90;;;13.10;60.60;;;;;;5036867;28;20045;-38
2021/03/22 12:34:19;;;;;;;1.50;1.02;;;13.10;60.50;;;;;;5005249;28;20623;-38
2021/03/22 12:36:46;;;;;;;1.77;0.93;;;13.10;60.50;;;;;;5031975;28;20049;-38
2021/03/22 12:39:18;;;;;;;2.28;1.17;;;13.10;60.60;;;;;;5042287;28;20059;-38
2021/03/22 12:41:44;;;;;;;1.88;1.10;;;13.10;60.60;;;;;;5041970;28;20025;-38
2021/03/22 12:44:10;;;;;;;1.17;0.90;;;13.10;60.60;;;;;;5041894;28;20040;-38
2021/03/22 12:46:36;;;;;;;1.38;0.80;;;13.10;60.50;;;;;;5041889;28;20014;-37
2021/03/22 12:49:03;;;;;;;1.55;1.08;;;13.10;60.40;;;;;;5041786;28;20092;-38
2021/03/22 12:51:29;;;;;;;1.50;1.00;;;13.10;60.40;;;;;;5061972;28;20029;-38
2021/03/22 12:53:55;;;;;;;1.92;0.70;;;13.10;60.40;;;;;;5064549;28;20037;-37
2021/03/22 12:56:25;;;;;;;1.95;1.05;;;13.10;60.50;;;;;;5059193;28;20056;-37
2021/03/22 12:58:53;;;;;;;2.80;1.10;;;13.10;60.60;;;;;;4992036;28;20041;-38
2021/03/22 13:01:19;;;;;;;2.00;1.10;;;13.10;60.70;;;;;;5029564;28;20052;-38
2021/03/22 13:03:45;;;;;;;2.17;0.80;;;13.10;60.70;;;;;;5011432;28;20562;-38
2021/03/22 13:06:12;;;;;;;1.65;0.98;;;13.10;60.70;;;;;;5045318;28;20033;-37
2021/03/22 13:08:38;;;;;;;1.85;0.82;;;13.10;60.70;;;;;;5045495;28;20033;-38
2021/03/22 13:11:06;;;;;;;1.15;1.05;;;13.10;60.80;;;;;;5045511;28;20022;-38
2021/03/22 13:13:32;;;;;;;2.30;1.15;;;13.10;60.90;;;;;;5061770;28;20083;-37
2021/03/22 13:15:59;;;;;;;1.95;1.10;;;13.10;60.80;;;;;;5064916;28;20021;-38
2021/03/22 13:18:30;;;;;;;2.47;0.90;;;13.10;60.80;;;;;;5065346;28;20017;-37
2021/03/22 13:20:59;;;;;;;1.77;1.05;;;13.10;60.90;;;;;;5065141;28;20029;-37